createdAt,value
2018-07-09T00:02:15.802Z,3.03
2018-07-09T00:04:48.521Z,2.30
2018-07-09T00:07:20.862Z,3.13
2018-07-09T00:09:51.988Z,2.47
2018-07-09T00:12:21.148Z,3.30
2018-07-09T00:14:52.925Z,3.13
2018-07-09T00:17:21.796Z,2.60
2018-07-09T00:19:52.688Z,2.90
2018-07-09T00:22:22.265Z,3.20
2018-07-09T00:24:52.037Z,3.20
2018-07-09T00:27:21.043Z,3.13
2018-07-09T00:29:52.813Z,2.50
2018-07-09T00:32:30.014Z,2.73
2018-07-09T00:35:04.846Z,2.90
2018-07-09T00:37:34.501Z,2.80
2018-07-09T00:40:04.601Z,2.17
2018-07-09T00:42:35.145Z,2.80
2018-07-09T00:45:09.893Z,2.93
2018-07-09T00:47:39.441Z,2.77
2018-07-09T00:50:15.902Z,3.13
2018-07-09T00:52:46.375Z,3.07
2018-07-09T00:55:22.410Z,2.60
2018-07-09T00:57:52.068Z,3.27
2018-07-09T01:00:22.145Z,2.87
2018-07-09T01:02:53.781Z,3.10
2018-07-09T01:05:25.399Z,2.60
2018-07-09T01:07:54.532Z,2.47
2018-07-09T01:10:25.182Z,3.33
2018-07-09T01:12:55.133Z,2.97
2018-07-09T01:15:28.865Z,3.30
2018-07-09T01:17:59.520Z,3.20
2018-07-09T01:20:28.966Z,3.03
2018-07-09T01:23:00.271Z,3.07
2018-07-09T01:25:34.665Z,2.87
2018-07-09T01:28:07.008Z,2.70
2018-07-09T01:30:37.829Z,2.80
2018-07-09T01:33:08.497Z,3.10
2018-07-09T01:35:37.929Z,3.07
2018-07-09T01:38:08.360Z,2.30
2018-07-09T01:40:40.553Z,2.70
2018-07-09T01:43:14.687Z,3.03
2018-07-09T01:45:45.709Z,3.30
2018-07-09T01:48:16.300Z,3.37
2018-07-09T01:50:49.472Z,3.30
2018-07-09T01:53:18.743Z,3.03
2018-07-09T01:55:50.840Z,3.30
2018-07-09T01:58:27.160Z,2.83
2018-07-09T02:00:55.988Z,3.10
2018-07-09T02:03:24.276Z,3.27
2018-07-09T02:06:00.032Z,4.00
2018-07-09T02:08:30.366Z,3.00
2018-07-09T02:11:02.418Z,3.37
2018-07-09T02:13:32.172Z,3.13
2018-07-09T02:16:03.001Z,2.60
2018-07-09T02:18:33.218Z,3.33
2018-07-09T02:21:02.713Z,3.70
2018-07-09T02:23:32.985Z,3.37
2018-07-09T02:26:03.200Z,3.40
2018-07-09T02:28:33.708Z,3.40
2018-07-09T02:31:03.102Z,4.00
2018-07-09T02:33:33.794Z,3.30
2018-07-09T02:36:02.783Z,2.80
2018-07-09T02:38:33.156Z,3.50
2018-07-09T02:41:07.667Z,3.43
2018-07-09T02:43:37.586Z,3.43
2018-07-09T02:46:06.985Z,3.30
2018-07-09T02:48:38.422Z,3.00
2018-07-09T02:51:07.950Z,3.23
2018-07-09T02:53:38.412Z,3.73
2018-07-09T02:56:08.060Z,3.30
2018-07-09T02:58:37.444Z,3.43
2018-07-09T03:01:08.943Z,3.63
2018-07-09T03:03:44.035Z,3.57
2018-07-09T03:06:14.935Z,3.40
2018-07-09T03:08:45.372Z,3.03
2018-07-09T03:11:22.648Z,3.40
2018-07-09T03:13:51.862Z,3.40
2018-07-09T03:16:25.717Z,4.10
2018-07-09T03:18:55.534Z,3.30
2018-07-09T03:21:29.306Z,3.50
2018-07-09T03:23:59.928Z,3.37
2018-07-09T03:26:33.883Z,3.33
2018-07-09T03:29:04.370Z,3.33
2018-07-09T03:31:34.424Z,3.87
2018-07-09T03:34:10.116Z,4.10
2018-07-09T03:36:43.376Z,3.10
2018-07-09T03:39:13.384Z,3.50
2018-07-09T03:41:44.818Z,3.70
2018-07-09T03:44:15.474Z,4.07
2018-07-09T03:46:44.393Z,3.57
2018-07-09T03:49:14.918Z,3.40
2018-07-09T03:51:44.772Z,4.00
2018-07-09T03:54:15.549Z,4.10
2018-07-09T03:56:45.069Z,3.90
2018-07-09T03:59:24.687Z,3.97
2018-07-09T04:01:54.431Z,4.20
2018-07-09T04:04:23.708Z,3.60
2018-07-09T04:06:58.603Z,4.53
2018-07-09T04:09:27.860Z,3.67
2018-07-09T04:11:57.177Z,4.27
2018-07-09T04:14:26.798Z,4.63
2018-07-09T04:17:01.209Z,4.17
2018-07-09T04:19:30.941Z,4.57
2018-07-09T04:22:02.712Z,3.90
2018-07-09T04:24:33.384Z,4.37
2018-07-09T04:27:03.624Z,3.20
2018-07-09T04:29:34.161Z,4.00
2018-07-09T04:32:06.784Z,4.37
2018-07-09T04:34:35.749Z,4.80
2018-07-09T04:37:06.143Z,3.33
2018-07-09T04:39:36.425Z,3.40
2018-07-09T04:42:06.873Z,3.90
2018-07-09T04:44:39.560Z,3.40
2018-07-09T04:47:14.521Z,4.20
2018-07-09T04:49:44.102Z,4.70
2018-07-09T04:52:19.669Z,3.37
2018-07-09T04:54:48.558Z,3.40
2018-07-09T04:57:19.895Z,4.13
2018-07-09T04:59:51.066Z,3.83
2018-07-09T05:02:21.915Z,3.80
2018-07-09T05:04:51.642Z,3.70
2018-07-09T05:07:21.628Z,3.77
2018-07-09T05:09:51.735Z,3.93
2018-07-09T05:12:21.110Z,4.13
2018-07-09T05:14:52.128Z,3.90
2018-07-09T05:17:27.960Z,3.90
2018-07-09T05:19:57.878Z,3.50
2018-07-09T05:22:28.382Z,4.23
2018-07-09T05:24:58.849Z,4.10
2018-07-09T05:27:32.968Z,4.10
2018-07-09T05:30:02.528Z,3.77
2018-07-09T05:32:33.099Z,3.93
2018-07-09T05:35:02.362Z,4.83
2018-07-09T05:37:37.884Z,4.43
2018-07-09T05:40:08.614Z,4.20
2018-07-09T05:42:38.913Z,4.10
2018-07-09T05:45:09.311Z,3.83
2018-07-09T05:47:42.326Z,3.80
2018-07-09T05:50:16.286Z,4.40
2018-07-09T05:52:50.898Z,3.97
2018-07-09T05:55:22.641Z,3.50
2018-07-09T05:57:53.225Z,3.83
2018-07-09T06:00:24.012Z,4.00
2018-07-09T06:02:58.958Z,5.00
2018-07-09T06:05:29.021Z,4.30
2018-07-09T06:08:03.110Z,4.00
2018-07-09T06:10:35.033Z,4.10
2018-07-09T06:13:08.245Z,3.50
2018-07-09T06:15:40.293Z,3.77
2018-07-09T06:18:09.883Z,4.23
2018-07-09T06:20:41.591Z,5.30
2018-07-09T06:23:10.574Z,5.57
2018-07-09T06:25:42.193Z,6.43
2018-07-09T06:28:12.161Z,4.30
2018-07-09T06:30:41.509Z,4.00
2018-07-09T06:33:16.510Z,4.63
2018-07-09T06:35:50.540Z,3.80
2018-07-09T06:38:20.950Z,4.60
2018-07-09T06:40:50.058Z,5.40
2018-07-09T06:43:26.351Z,4.03
2018-07-09T06:45:56.736Z,3.93
2018-07-09T06:48:30.710Z,4.07
2018-07-09T06:51:05.252Z,3.57
2018-07-09T06:53:37.025Z,4.07
2018-07-09T06:56:07.227Z,4.50
2018-07-09T06:58:37.747Z,4.17
2018-07-09T07:01:08.474Z,5.00
2018-07-09T07:03:37.292Z,5.57
2018-07-09T07:06:08.637Z,4.63
2018-07-09T07:08:38.087Z,5.00
2018-07-09T07:11:08.979Z,4.37
2018-07-09T07:13:45.098Z,3.67
2018-07-09T07:16:15.892Z,4.30
2018-07-09T07:18:45.944Z,3.90
2018-07-09T07:21:15.431Z,4.63
2018-07-09T07:23:50.485Z,4.13
2018-07-09T07:26:24.329Z,4.33
2018-07-09T07:28:57.637Z,4.40
2018-07-09T07:31:28.371Z,5.00
2018-07-09T07:33:59.542Z,4.00
2018-07-09T07:36:29.718Z,4.37
2018-07-09T07:38:59.501Z,3.70
2018-07-09T07:41:33.300Z,8.63
2018-07-09T07:44:03.801Z,7.27
2018-07-09T07:46:34.614Z,4.47
2018-07-09T07:49:07.231Z,4.10
2018-07-09T07:51:37.955Z,4.50
2018-07-09T07:54:07.633Z,4.70
2018-07-09T07:56:43.542Z,4.63
2018-07-09T07:59:12.340Z,4.37
2018-07-09T08:01:43.054Z,4.50
2018-07-09T08:04:13.884Z,4.40
2018-07-09T08:06:45.081Z,3.80
2018-07-09T08:09:17.775Z,4.50
2018-07-09T08:11:49.258Z,5.03
2018-07-09T08:14:21.070Z,4.30
2018-07-09T08:16:51.050Z,4.43
2018-07-09T08:19:21.805Z,4.67
2018-07-09T08:21:55.326Z,5.03
2018-07-09T08:24:26.737Z,4.63
2018-07-09T08:26:57.157Z,4.23
2018-07-09T08:29:28.003Z,5.13
2018-07-09T08:32:02.414Z,4.90
2018-07-09T08:34:31.957Z,4.47
2018-07-09T08:37:07.867Z,5.00
2018-07-09T08:39:36.634Z,4.87
2018-07-09T08:42:06.031Z,5.27
2018-07-09T08:44:36.801Z,4.83
2018-07-09T08:47:06.212Z,4.20
2018-07-09T08:49:36.269Z,4.37
2018-07-09T08:52:05.476Z,4.50
2018-07-09T08:54:36.692Z,4.50
2018-07-09T08:57:10.405Z,4.70
2018-07-09T08:59:41.064Z,4.80
2018-07-09T09:02:12.333Z,4.60
2018-07-09T09:04:42.068Z,4.37
2018-07-09T09:07:12.871Z,3.90
2018-07-09T09:09:42.203Z,4.67
2018-07-09T09:12:21.365Z,4.50
2018-07-09T09:14:53.604Z,5.13
2018-07-09T09:17:24.228Z,5.23
2018-07-09T09:19:56.005Z,4.97
2018-07-09T09:22:25.773Z,4.87
2018-07-09T09:24:59.494Z,4.80
2018-07-09T09:27:34.780Z,4.03
2018-07-09T09:30:12.924Z,4.17
2018-07-09T09:32:43.000Z,5.10
2018-07-09T09:35:18.060Z,4.60
2018-07-09T09:37:52.044Z,5.40
2018-07-09T09:40:23.001Z,5.37
2018-07-09T09:42:53.930Z,5.10
2018-07-09T09:45:28.616Z,4.83
2018-07-09T09:47:59.121Z,4.43
2018-07-09T09:50:28.257Z,5.00
2018-07-09T09:53:02.864Z,4.23
2018-07-09T09:55:32.721Z,4.90
2018-07-09T09:58:06.559Z,5.17
2018-07-09T10:00:43.553Z,4.60
2018-07-09T10:03:13.308Z,5.10
2018-07-09T10:05:46.689Z,4.20
2018-07-09T10:08:16.752Z,5.13
2018-07-09T10:10:51.934Z,4.70
2018-07-09T10:13:25.662Z,4.53
2018-07-09T10:15:55.008Z,4.57
2018-07-09T10:18:25.804Z,5.83
2018-07-09T10:20:55.281Z,4.50
2018-07-09T10:23:25.146Z,4.90
2018-07-09T10:25:54.995Z,4.50
2018-07-09T10:28:30.085Z,4.10
2018-07-09T10:30:59.465Z,4.87
2018-07-09T10:33:28.446Z,4.53
2018-07-09T10:36:02.626Z,5.33
2018-07-09T10:38:38.192Z,4.60
2018-07-09T10:41:07.951Z,5.53
2018-07-09T10:43:45.373Z,5.07
2018-07-09T10:46:20.197Z,5.23
2018-07-09T10:48:58.039Z,5.30
2018-07-09T10:51:27.599Z,8.70
2018-07-09T10:53:58.513Z,6.40
2018-07-09T10:56:29.513Z,4.63
2018-07-09T10:59:01.154Z,4.40
2018-07-09T11:01:31.511Z,4.80
2018-07-09T11:04:01.968Z,4.80
2018-07-09T11:06:41.353Z,4.00
2018-07-09T11:09:13.058Z,4.83
2018-07-09T11:11:47.205Z,4.90
2018-07-09T11:14:21.926Z,4.53
2018-07-09T11:16:50.730Z,4.20
2018-07-09T11:19:21.529Z,4.50
2018-07-09T11:21:52.222Z,4.10
2018-07-09T11:24:22.481Z,4.50
2018-07-09T11:26:52.864Z,4.13
2018-07-09T11:29:29.041Z,4.00
2018-07-09T11:32:02.981Z,4.33
2018-07-09T11:34:31.904Z,4.70
2018-07-09T11:37:04.741Z,4.87
2018-07-09T11:39:34.354Z,4.13
2018-07-09T11:42:09.133Z,5.07
2018-07-09T11:44:45.517Z,4.20
2018-07-09T11:47:19.322Z,4.67
2018-07-09T11:49:54.620Z,7.80
2018-07-09T11:52:32.737Z,6.20
2018-07-09T11:55:08.263Z,5.37
2018-07-09T11:57:37.631Z,5.10
2018-07-09T12:00:08.341Z,4.63
2018-07-09T12:02:40.876Z,5.53
2018-07-09T12:05:10.494Z,5.23
2018-07-09T12:07:41.558Z,4.83
2018-07-09T12:10:16.388Z,4.80
2018-07-09T12:12:48.830Z,5.17
2018-07-09T12:15:18.345Z,5.40
2018-07-09T12:17:49.008Z,5.77
2018-07-09T12:20:20.010Z,5.60
2018-07-09T12:22:55.541Z,5.20
2018-07-09T12:25:33.689Z,4.30
2018-07-09T12:28:04.393Z,5.40
2018-07-09T12:30:33.741Z,5.10
2018-07-09T12:33:11.720Z,5.70
2018-07-09T12:35:43.119Z,5.47
2018-07-09T12:38:12.731Z,5.00
2018-07-09T12:40:43.772Z,5.00
2018-07-09T12:43:15.229Z,4.90
2018-07-09T12:45:44.980Z,5.10
2018-07-09T12:48:18.395Z,5.53
2018-07-09T12:50:52.974Z,4.90
2018-07-09T12:53:28.504Z,5.07
2018-07-09T12:55:57.751Z,8.10
2018-07-09T12:58:27.975Z,6.37
2018-07-09T13:01:02.071Z,5.23
2018-07-09T13:03:32.182Z,4.97
2018-07-09T13:06:02.276Z,5.37
2018-07-09T13:08:32.337Z,5.10
2018-07-09T13:11:06.874Z,5.47
2018-07-09T13:13:41.271Z,6.00
2018-07-09T13:16:16.602Z,5.23
2018-07-09T13:18:45.502Z,5.10
2018-07-09T13:21:15.595Z,4.83
2018-07-09T13:23:45.510Z,5.23
2018-07-09T13:26:15.335Z,5.50
2018-07-09T13:28:45.284Z,5.30
2018-07-09T13:31:20.997Z,5.10
2018-07-09T13:33:52.281Z,5.30
2018-07-09T13:36:21.306Z,5.50
2018-07-09T13:38:51.778Z,5.10
2018-07-09T13:41:22.053Z,4.80
2018-07-09T13:43:52.693Z,5.70
2018-07-09T13:46:21.473Z,4.83
2018-07-09T13:48:59.602Z,5.43
2018-07-09T13:51:30.018Z,5.40
2018-07-09T13:53:59.331Z,4.93
2018-07-09T13:56:28.160Z,4.90
2018-07-09T13:58:57.842Z,5.40
2018-07-09T14:01:27.940Z,4.80
2018-07-09T14:03:56.657Z,4.30
2018-07-09T14:06:29.569Z,5.30
2018-07-09T14:09:00.244Z,4.80
2018-07-09T14:11:34.794Z,5.07
2018-07-09T14:14:04.404Z,8.93
2018-07-09T14:16:34.365Z,5.07
2018-07-09T14:21:26.968Z,4.80
2018-07-09T14:24:01.969Z,5.70
2018-07-09T14:26:37.421Z,5.00
2018-07-09T14:29:06.361Z,4.97
2018-07-09T14:31:37.306Z,5.43
2018-07-09T14:34:08.737Z,4.87
2018-07-09T14:36:39.152Z,4.93
2018-07-09T14:39:10.838Z,4.47
2018-07-09T14:41:42.138Z,5.27
2018-07-09T14:44:16.277Z,4.50
2018-07-09T14:46:47.025Z,4.70
2018-07-09T14:49:17.275Z,4.43
2018-07-09T14:51:47.833Z,5.40
2018-07-09T14:54:16.949Z,5.00
2018-07-09T14:56:45.892Z,4.80
2018-07-09T14:59:16.403Z,4.67
2018-07-09T15:01:45.788Z,5.00
2018-07-09T15:04:14.816Z,4.30
2018-07-09T15:06:44.552Z,5.67
2018-07-09T15:09:22.022Z,5.33
2018-07-09T15:11:52.040Z,4.50
2018-07-09T15:14:22.514Z,5.10
2018-07-09T15:16:53.248Z,4.60
2018-07-09T15:19:31.511Z,4.63
2018-07-09T15:22:03.606Z,4.60
2018-07-09T15:24:34.469Z,4.93
2018-07-09T15:27:05.828Z,4.73
2018-07-09T15:29:41.713Z,4.20
2018-07-09T15:32:23.693Z,5.03
2018-07-09T15:34:54.187Z,5.10
2018-07-09T15:37:24.409Z,4.20
2018-07-09T15:39:55.602Z,4.97
2018-07-09T15:42:30.598Z,4.70
2018-07-09T15:45:03.918Z,4.40
2018-07-09T15:47:33.399Z,8.40
2018-07-09T15:50:04.335Z,5.30
2018-07-09T15:52:34.652Z,4.43
2018-07-09T15:55:04.871Z,4.63
2018-07-09T15:57:33.733Z,4.20
2018-07-09T16:00:05.157Z,4.87
2018-07-09T16:02:36.717Z,4.57
2018-07-09T16:05:07.175Z,4.37
2018-07-09T16:07:36.086Z,4.47
2018-07-09T16:10:06.725Z,3.80
2018-07-09T16:12:41.729Z,4.33
2018-07-09T16:15:11.437Z,4.70
2018-07-09T16:17:42.342Z,4.80
2018-07-09T16:20:13.016Z,4.90
2018-07-09T16:22:43.421Z,4.77
2018-07-09T16:25:15.519Z,4.80
2018-07-09T16:27:46.618Z,4.40
2018-07-09T16:30:17.002Z,4.90
2018-07-09T16:32:53.301Z,4.50
2018-07-09T16:35:23.285Z,4.60
2018-07-09T16:37:54.295Z,4.40
2018-07-09T16:40:24.819Z,4.40
2018-07-09T16:43:02.365Z,4.70
2018-07-09T16:45:33.078Z,4.30
2018-07-09T16:48:02.943Z,5.03
2018-07-09T16:50:32.764Z,4.80
2018-07-09T16:53:03.692Z,5.23
2018-07-09T16:55:34.125Z,4.87
2018-07-09T16:58:04.477Z,5.40
2018-07-09T17:00:33.790Z,4.83
2018-07-09T17:03:02.967Z,4.93
2018-07-09T17:05:40.385Z,5.23
2018-07-09T17:08:15.245Z,5.47
2018-07-09T17:10:44.829Z,5.70
2018-07-09T17:13:19.741Z,7.20
2018-07-09T17:15:49.680Z,5.73
2018-07-09T17:18:19.829Z,5.07
2018-07-09T17:20:49.784Z,4.40
2018-07-09T17:23:27.730Z,4.90
2018-07-09T17:25:57.414Z,5.20
2018-07-09T17:28:27.478Z,5.13
2018-07-09T17:31:01.613Z,4.57
2018-07-09T17:33:38.618Z,5.63
2018-07-09T17:36:15.504Z,11.87
2018-07-09T17:38:47.264Z,5.10
2018-07-09T17:41:17.096Z,5.07
2018-07-09T17:43:47.831Z,5.00
2018-07-09T17:46:22.327Z,5.07
2018-07-09T17:48:58.911Z,4.43
2018-07-09T17:51:29.326Z,5.00
2018-07-09T17:53:59.607Z,4.80
2018-07-09T17:56:30.065Z,4.90
2018-07-09T17:59:00.429Z,4.30
2018-07-09T18:01:29.152Z,5.00
2018-07-09T18:03:58.766Z,5.40
2018-07-09T18:06:29.478Z,4.63
2018-07-09T18:08:59.374Z,4.63
2018-07-09T18:11:33.573Z,5.47
2018-07-09T18:14:11.739Z,4.33
2018-07-09T18:16:45.821Z,5.77
2018-07-09T18:19:19.188Z,5.10
2018-07-09T18:21:49.158Z,4.90
2018-07-09T18:24:25.446Z,5.40
2018-07-09T18:26:54.301Z,5.53
2018-07-09T18:29:23.910Z,4.97
2018-07-09T18:31:53.423Z,5.37
2018-07-09T18:34:23.907Z,5.90
2018-07-09T18:36:53.734Z,11.07
2018-07-09T18:39:22.941Z,7.40
2018-07-09T18:41:56.821Z,5.90
2018-07-09T18:44:30.542Z,6.00
2018-07-09T18:46:59.519Z,5.80
2018-07-09T18:49:29.841Z,5.27
2018-07-09T18:51:59.496Z,6.00
2018-07-09T18:54:28.368Z,6.00
2018-07-09T18:56:58.923Z,5.50
2018-07-09T18:59:28.681Z,5.97
2018-07-09T19:01:58.021Z,5.60
2018-07-09T19:04:29.630Z,5.40
2018-07-09T19:07:11.836Z,5.60
2018-07-09T19:09:41.204Z,5.97
2018-07-09T19:12:10.795Z,5.30
2018-07-09T19:14:43.773Z,4.93
2018-07-09T19:18:27.527Z,5.47
2018-07-09T19:21:39.107Z,5.93
2018-07-09T19:24:09.570Z,6.00
2018-07-09T19:26:38.224Z,5.60
2018-07-09T19:29:05.698Z,5.83
2018-07-09T19:31:33.801Z,6.13
2018-07-09T19:34:01.504Z,5.43
2018-07-09T19:36:29.103Z,6.87
2018-07-09T19:38:56.584Z,12.73
2018-07-09T19:41:24.384Z,6.27
2018-07-09T19:43:51.868Z,6.10
2018-07-09T19:46:20.203Z,6.57
2018-07-09T19:48:53.156Z,5.60
2018-07-09T19:51:21.284Z,5.67
2018-07-09T19:53:50.434Z,5.43
2018-07-09T19:56:18.956Z,6.10
2018-07-09T19:58:47.581Z,5.90
2018-07-09T20:01:15.151Z,5.77
2018-07-09T20:03:47.056Z,5.80
2018-07-09T20:06:15.300Z,5.90
2018-07-09T20:08:48.729Z,5.47
2018-07-09T20:11:21.430Z,5.50
2018-07-09T20:14:07.764Z,6.00
2018-07-09T20:16:41.252Z,5.20
2018-07-09T20:19:10.370Z,5.90
2018-07-09T20:21:39.385Z,5.20
2018-07-09T20:24:06.844Z,5.53
2018-07-09T20:26:35.125Z,5.70
2018-07-09T20:29:03.934Z,5.17
2018-07-09T20:31:31.961Z,5.50
2018-07-09T20:34:00.522Z,5.07
2018-07-09T20:36:36.101Z,6.10
2018-07-09T20:39:05.879Z,6.07
2018-07-09T20:41:34.614Z,5.77
2018-07-09T20:44:03.412Z,5.37
2018-07-09T20:46:32.273Z,5.70
2018-07-09T20:49:05.848Z,6.13
2018-07-09T20:51:34.161Z,5.50
2018-07-09T20:54:01.631Z,5.70
2018-07-09T20:56:33.312Z,5.60
2018-07-09T20:59:00.715Z,6.30
2018-07-09T21:01:28.251Z,6.00
2018-07-09T21:04:00.852Z,5.53
2018-07-09T21:06:28.360Z,5.80
2018-07-09T21:08:55.765Z,6.03
2018-07-09T21:11:28.863Z,6.00
2018-07-09T21:13:56.993Z,5.90
2018-07-09T21:16:25.171Z,5.10
2018-07-09T21:18:58.683Z,5.40
2018-07-09T21:21:29.470Z,6.30
2018-07-09T21:23:58.647Z,5.40
2018-07-09T21:26:27.174Z,6.00
2018-07-09T21:28:54.884Z,5.03
2018-07-09T21:31:24.932Z,5.57
2018-07-09T21:33:53.217Z,5.67
2018-07-09T21:36:24.591Z,5.10
2018-07-09T21:38:53.286Z,5.10
2018-07-09T21:41:21.607Z,5.70
2018-07-09T21:43:54.761Z,4.97
2018-07-09T21:46:26.592Z,5.40
2018-07-09T21:48:54.636Z,5.23
2018-07-09T21:51:23.458Z,5.00
2018-07-09T21:53:51.268Z,4.97
2018-07-09T21:56:20.274Z,5.20
2018-07-09T21:58:48.676Z,5.50
2018-07-09T22:01:17.967Z,5.67
2018-07-09T22:03:50.208Z,4.70
2018-07-09T22:06:18.751Z,5.77
2018-07-09T22:08:47.309Z,5.20
2018-07-09T22:11:14.757Z,5.40
2018-07-09T22:13:42.417Z,5.20
2018-07-09T22:16:09.847Z,5.10
2018-07-09T22:18:38.702Z,6.10
2018-07-09T22:21:06.788Z,5.30
2018-07-09T22:23:35.701Z,5.60
2018-07-09T22:26:03.422Z,5.57
2018-07-09T22:28:31.093Z,6.03
2018-07-09T22:31:01.624Z,5.80
2018-07-09T22:33:31.641Z,6.43
2018-07-09T22:36:00.920Z,6.30
2018-07-09T22:38:30.552Z,6.90
2018-07-09T22:41:09.949Z,6.10
2018-07-09T22:43:50.778Z,6.70
2018-07-09T22:46:20.020Z,6.20
2018-07-09T22:48:55.348Z,6.10
2018-07-09T22:51:24.932Z,6.43
2018-07-09T22:53:54.771Z,6.20
2018-07-09T22:56:29.706Z,5.77
2018-07-09T22:58:58.496Z,6.27
2018-07-09T23:01:28.437Z,6.83
2018-07-09T23:04:00.845Z,5.70
2018-07-09T23:06:37.969Z,6.00
2018-07-09T23:09:18.033Z,6.63
2018-07-09T23:14:02.977Z,6.20
2018-07-09T23:16:41.625Z,6.60
2018-07-09T23:19:25.703Z,6.97
2018-07-09T23:22:06.221Z,6.20
2018-07-09T23:24:34.849Z,6.50
2018-07-09T23:27:04.552Z,5.83
2018-07-09T23:29:32.821Z,6.27
2018-07-09T23:32:02.096Z,5.57
2018-07-09T23:34:30.921Z,5.73
2018-07-09T23:37:00.538Z,6.23
2018-07-09T23:39:33.865Z,6.20
2018-07-09T23:42:01.630Z,6.00
2018-07-09T23:44:33.385Z,6.20
2018-07-09T23:47:01.332Z,5.87
2018-07-09T23:49:29.596Z,6.20
2018-07-09T23:52:03.410Z,6.00
2018-07-09T23:54:30.982Z,5.30
2018-07-09T23:59:13.864Z,6.10
